createdAt,value
2023-03-20T00:02:03.227Z,90.57
2023-03-20T00:04:30.808Z,90.86
2023-03-20T00:06:58.306Z,90.93
2023-03-20T00:09:28.618Z,91.18
2023-03-20T00:11:56.768Z,91.46
2023-03-20T00:14:25.262Z,91.31
2023-03-20T00:16:53.158Z,91.15
2023-03-20T00:19:26.361Z,91.78
2023-03-20T00:21:55.244Z,92.37
2023-03-20T00:24:23.019Z,92.50
2023-03-20T00:26:51.882Z,92.99
2023-03-20T00:29:27.878Z,92.74
2023-03-20T00:31:56.099Z,92.80
2023-03-20T00:34:26.142Z,92.88
2023-03-20T00:36:54.683Z,92.62
2023-03-20T00:39:22.284Z,92.30
2023-03-20T00:41:56.688Z,92.21
2023-03-20T00:44:26.749Z,92.38
2023-03-20T00:47:18.688Z,92.26
2023-03-20T00:49:51.701Z,91.98
2023-03-20T00:52:20.376Z,91.76
2023-03-20T00:54:47.447Z,91.84
2023-03-20T00:57:18.151Z,92.10
2023-03-20T00:59:58.239Z,92.43
2023-03-20T01:02:29.248Z,92.85
2023-03-20T01:04:56.938Z,92.33
2023-03-20T01:07:26.752Z,91.89
2023-03-20T01:09:53.787Z,92.15
2023-03-20T01:12:21.320Z,91.91
2023-03-20T01:14:54.895Z,92.46
2023-03-20T01:17:23.988Z,92.50
2023-03-20T01:19:51.394Z,92.95
2023-03-20T01:22:18.784Z,92.82
2023-03-20T01:24:46.346Z,93.06
2023-03-20T01:27:19.801Z,93.02
2023-03-20T01:29:47.582Z,93.67
2023-03-20T01:32:20.176Z,93.85
2023-03-20T01:34:53.258Z,94.47
2023-03-20T01:37:27.100Z,94.34
2023-03-20T01:39:57.703Z,94.37
2023-03-20T01:42:25.397Z,94.34
2023-03-20T01:44:52.992Z,94.14
2023-03-20T01:47:24.289Z,94.21
2023-03-20T01:50:17.026Z,93.65
2023-03-20T01:52:46.394Z,93.18
2023-03-20T01:55:14.040Z,92.87
2023-03-20T01:57:44.451Z,92.98
2023-03-20T02:00:15.738Z,93.22
2023-03-20T02:02:46.615Z,93.54
2023-03-20T02:05:28.362Z,93.36
2023-03-20T02:08:18.074Z,94.15
2023-03-20T02:10:47.245Z,93.57
2023-03-20T02:13:23.154Z,93.79
2023-03-20T02:16:13.436Z,93.99
2023-03-20T02:18:59.195Z,93.88
2023-03-20T02:21:54.308Z,93.76
2023-03-20T02:24:55.163Z,94.16
2023-03-20T02:27:28.951Z,94.97
2023-03-20T02:30:26.040Z,94.69
2023-03-20T02:33:42.617Z,94.70
2023-03-20T02:36:25.027Z,94.86
2023-03-20T02:38:52.338Z,94.95
2023-03-20T02:41:41.528Z,95.24
2023-03-20T02:44:08.682Z,95.67
2023-03-20T02:46:54.949Z,95.50
2023-03-20T02:49:42.977Z,95.41
2023-03-20T02:52:18.779Z,95.62
2023-03-20T02:55:08.073Z,95.72
2023-03-20T02:58:04.959Z,95.09
2023-03-20T03:00:41.212Z,94.50
2023-03-20T03:03:32.361Z,94.80
2023-03-20T03:06:09.901Z,94.92
2023-03-20T03:08:45.079Z,94.95
2023-03-20T03:11:16.701Z,94.90
2023-03-20T03:13:52.034Z,94.95
2023-03-20T03:16:30.990Z,95.06
2023-03-20T03:19:19.132Z,95.04
2023-03-20T03:21:48.463Z,94.88
2023-03-20T03:24:42.704Z,94.97
2023-03-20T03:27:20.089Z,94.93
2023-03-20T03:30:01.382Z,94.99
2023-03-20T03:32:36.986Z,95.04
2023-03-20T03:35:07.778Z,95.22
2023-03-20T03:38:24.362Z,95.12
2023-03-20T03:41:10.596Z,95.00
2023-03-20T03:44:08.947Z,94.75
2023-03-20T03:46:44.946Z,95.68
2023-03-20T03:49:19.603Z,95.74
2023-03-20T03:51:51.381Z,95.58
2023-03-20T03:54:25.724Z,95.64
2023-03-20T03:57:16.953Z,95.63
2023-03-20T03:59:49.914Z,95.39
2023-03-20T04:02:19.971Z,95.45
2023-03-20T04:04:51.484Z,95.59
2023-03-20T04:07:19.268Z,96.16
2023-03-20T04:09:46.515Z,96.32
2023-03-20T04:12:34.960Z,96.93
2023-03-20T04:15:03.398Z,97.43
2023-03-20T04:17:33.082Z,97.66
2023-03-20T04:20:01.286Z,97.88
2023-03-20T04:22:28.529Z,98.22
2023-03-20T04:24:59.621Z,98.60
2023-03-20T04:27:29.166Z,98.62
2023-03-20T04:29:57.566Z,99.03
2023-03-20T04:32:43.560Z,99.49
2023-03-20T04:35:31.211Z,99.76
2023-03-20T04:38:03.846Z,100.00
2023-03-20T04:40:33.703Z,100.00
2023-03-20T04:43:01.065Z,100.00
2023-03-20T04:45:28.299Z,100.00
2023-03-20T04:47:55.689Z,100.00
2023-03-20T04:50:24.053Z,100.00
2023-03-20T04:52:52.713Z,100.00
2023-03-20T04:55:20.828Z,100.00
2023-03-20T04:57:49.650Z,100.00
2023-03-20T05:00:18.981Z,100.00
2023-03-20T05:02:47.141Z,100.00
2023-03-20T05:05:16.378Z,100.00
2023-03-20T05:07:44.335Z,100.00
2023-03-20T05:10:17.771Z,100.00
2023-03-20T05:13:00.202Z,100.00
2023-03-20T05:15:50.448Z,100.00
2023-03-20T05:18:32.422Z,100.00
2023-03-20T05:21:17.466Z,100.00
2023-03-20T05:24:11.808Z,100.00
2023-03-20T05:26:58.205Z,100.00
2023-03-20T05:29:44.109Z,100.00
2023-03-20T05:32:33.106Z,100.00
2023-03-20T05:35:29.600Z,100.00
2023-03-20T05:38:22.957Z,100.00
2023-03-20T05:41:04.253Z,100.00
2023-03-20T05:43:52.146Z,100.00
2023-03-20T05:46:33.934Z,100.00
2023-03-20T05:49:22.157Z,100.00
2023-03-20T05:52:17.527Z,100.00
2023-03-20T05:55:13.705Z,100.00
2023-03-20T05:57:52.402Z,100.00
2023-03-20T06:00:47.160Z,100.00
2023-03-20T06:03:33.525Z,100.00
2023-03-20T06:06:08.882Z,100.00
2023-03-20T06:08:36.949Z,100.00
2023-03-20T06:11:04.706Z,90.63
2023-03-20T06:13:35.899Z,90.02
2023-03-20T06:16:05.618Z,81.45
2023-03-20T06:18:33.210Z,77.86
2023-03-20T06:21:00.556Z,76.56
2023-03-20T06:23:31.805Z,75.94
2023-03-20T06:26:01.380Z,74.18
2023-03-20T06:28:30.415Z,68.66
2023-03-20T06:31:02.999Z,64.49
2023-03-20T06:33:30.376Z,64.64
2023-03-20T06:36:01.021Z,59.92
2023-03-20T06:38:31.719Z,55.77
2023-03-20T06:41:04.520Z,55.59
2023-03-20T06:43:32.631Z,55.67
2023-03-20T06:46:00.832Z,57.04
2023-03-20T06:48:30.653Z,55.76
2023-03-20T06:50:57.960Z,55.41
2023-03-20T06:53:31.266Z,56.04
2023-03-20T06:56:07.146Z,58.57
2023-03-20T06:58:34.656Z,59.79
2023-03-20T07:01:01.993Z,57.61
2023-03-20T07:03:30.591Z,58.36
2023-03-20T07:05:58.944Z,53.66
2023-03-20T07:08:26.556Z,50.47
2023-03-20T07:10:55.654Z,48.71
2023-03-20T07:13:23.084Z,46.23
2023-03-20T07:16:03.773Z,46.08
2023-03-20T07:18:37.389Z,45.36
2023-03-20T07:21:06.998Z,44.88
2023-03-20T07:23:36.078Z,44.54
2023-03-20T07:26:04.311Z,43.57
2023-03-20T07:28:32.781Z,45.17
2023-03-20T07:31:24.582Z,45.51
2023-03-20T07:34:05.010Z,45.27
2023-03-20T07:36:34.306Z,45.05
2023-03-20T07:39:01.615Z,44.15
2023-03-20T07:41:31.506Z,44.28
2023-03-20T07:44:08.169Z,43.39
2023-03-20T07:46:48.456Z,42.13
2023-03-20T07:49:20.944Z,41.82
2023-03-20T07:51:50.109Z,40.78
2023-03-20T07:54:18.329Z,39.45
2023-03-20T07:56:46.021Z,38.71
2023-03-20T07:59:14.448Z,38.59
2023-03-20T08:01:42.006Z,35.76
2023-03-20T08:04:09.986Z,36.03
2023-03-20T08:06:39.821Z,34.33
2023-03-20T08:09:07.774Z,33.20
2023-03-20T08:11:35.378Z,34.09
2023-03-20T08:14:02.891Z,35.35
2023-03-20T08:16:30.860Z,35.29
2023-03-20T08:19:01.579Z,33.90
2023-03-20T08:21:30.338Z,33.43
2023-03-20T08:23:58.573Z,33.73
2023-03-20T08:26:26.166Z,32.27
2023-03-20T08:28:53.761Z,32.62
2023-03-20T08:31:21.147Z,32.22
2023-03-20T08:33:49.073Z,31.78
2023-03-20T08:36:19.856Z,30.21
2023-03-20T08:38:49.373Z,30.96
2023-03-20T08:41:18.537Z,29.61
2023-03-20T08:43:46.925Z,29.42
2023-03-20T08:46:14.224Z,30.00
2023-03-20T08:48:42.054Z,29.00
2023-03-20T08:51:09.702Z,30.70
2023-03-20T08:53:37.075Z,30.19
2023-03-20T08:56:05.603Z,29.53
2023-03-20T08:58:33.229Z,29.71
2023-03-20T09:01:08.901Z,30.48
2023-03-20T09:03:37.496Z,30.78
2023-03-20T09:06:09.439Z,30.93
2023-03-20T09:08:37.360Z,30.44
2023-03-20T09:11:05.596Z,30.73
2023-03-20T09:13:33.174Z,30.99
2023-03-20T09:16:01.307Z,31.36
2023-03-20T09:18:28.918Z,31.69
2023-03-20T09:20:56.991Z,32.19
2023-03-20T09:23:24.505Z,33.26
2023-03-20T09:25:52.163Z,32.66
2023-03-20T09:28:20.014Z,31.80
2023-03-20T09:30:48.887Z,29.79
2023-03-20T09:33:16.954Z,30.90
2023-03-20T09:35:44.739Z,29.12
2023-03-20T09:38:12.986Z,28.26
2023-03-20T09:40:53.835Z,28.50
2023-03-20T09:43:49.100Z,27.13
2023-03-20T09:46:34.537Z,27.22
2023-03-20T09:49:17.390Z,26.23
2023-03-20T09:52:04.982Z,26.94
2023-03-20T09:54:53.133Z,27.91
2023-03-20T09:57:32.917Z,27.95
2023-03-20T10:00:08.745Z,26.72
2023-03-20T10:03:02.406Z,27.09
2023-03-20T10:05:59.701Z,27.07
2023-03-20T10:08:34.839Z,27.36
2023-03-20T10:11:11.121Z,27.66
2023-03-20T10:13:48.708Z,27.64
2023-03-20T10:16:29.479Z,28.52
2023-03-20T10:19:00.014Z,29.50
2023-03-20T10:21:43.591Z,29.88
2023-03-20T10:24:44.824Z,32.25
2023-03-20T10:27:34.395Z,34.04
2023-03-20T10:30:26.509Z,35.59
2023-03-20T10:33:28.167Z,35.02
2023-03-20T10:36:14.208Z,35.63
2023-03-20T10:38:45.929Z,34.97
2023-03-20T10:41:30.881Z,33.29
2023-03-20T10:44:00.670Z,33.32
2023-03-20T10:46:36.046Z,33.90
2023-03-20T10:49:15.944Z,33.79
2023-03-20T10:52:00.629Z,34.00
2023-03-20T10:54:34.253Z,34.93
2023-03-20T10:57:08.476Z,35.06
2023-03-20T10:59:42.526Z,34.46
2023-03-20T11:02:12.795Z,35.29
2023-03-20T11:04:41.249Z,35.05
2023-03-20T11:07:23.446Z,34.81
2023-03-20T11:10:06.988Z,34.80
2023-03-20T11:12:39.824Z,34.96
2023-03-20T11:15:38.016Z,34.96
2023-03-20T11:18:08.440Z,34.99
2023-03-20T11:20:42.116Z,35.55
2023-03-20T11:23:17.121Z,35.16
2023-03-20T11:25:56.178Z,36.24
2023-03-20T11:28:31.794Z,37.03
2023-03-20T11:31:05.401Z,37.89
2023-03-20T11:33:38.855Z,38.25
2023-03-20T11:36:33.477Z,38.92
2023-03-20T11:39:11.778Z,37.96
2023-03-20T11:41:49.807Z,37.29
2023-03-20T11:44:36.982Z,36.28
2023-03-20T11:47:06.857Z,37.02
2023-03-20T11:49:48.646Z,37.13
2023-03-20T11:52:22.480Z,36.93
2023-03-20T11:55:02.432Z,36.10
2023-03-20T11:57:47.162Z,35.02
2023-03-20T12:00:24.288Z,35.14
2023-03-20T12:02:52.594Z,37.39
2023-03-20T12:05:40.617Z,38.96
2023-03-20T12:08:21.303Z,39.44
2023-03-20T12:11:17.914Z,38.66
2023-03-20T12:13:52.495Z,38.62
2023-03-20T12:16:28.341Z,38.71
2023-03-20T12:19:00.969Z,38.76
2023-03-20T12:21:43.872Z,39.26
2023-03-20T12:24:36.918Z,38.35
2023-03-20T12:27:05.788Z,38.10
2023-03-20T12:29:48.024Z,38.44
2023-03-20T12:32:28.757Z,39.56
2023-03-20T12:35:16.734Z,39.19
2023-03-20T12:37:44.625Z,38.58
2023-03-20T12:40:21.119Z,40.10
2023-03-20T12:43:05.665Z,41.19
2023-03-20T12:45:44.702Z,42.61
2023-03-20T12:48:20.793Z,42.83
2023-03-20T12:51:03.672Z,43.30
2023-03-20T12:53:52.381Z,42.67
2023-03-20T12:56:33.877Z,42.43
2023-03-20T12:59:36.355Z,40.68
2023-03-20T13:02:30.685Z,40.54
2023-03-20T13:05:07.666Z,41.25
2023-03-20T13:08:03.480Z,42.74
2023-03-20T13:10:39.977Z,42.95
2023-03-20T13:13:54.733Z,43.94
2023-03-20T13:16:43.927Z,43.93
2023-03-20T13:19:25.310Z,43.40
2023-03-20T13:22:06.871Z,43.41
2023-03-20T13:25:01.928Z,43.73
2023-03-20T13:27:53.624Z,44.62
2023-03-20T13:30:51.126Z,46.76
2023-03-20T13:33:21.606Z,48.72
2023-03-20T13:36:18.952Z,49.54
2023-03-20T13:38:52.606Z,50.73
2023-03-20T13:41:20.557Z,51.43
2023-03-20T13:43:55.245Z,52.21
2023-03-20T13:46:50.196Z,52.67
2023-03-20T13:49:34.262Z,53.57
2023-03-20T13:52:29.978Z,53.20
2023-03-20T13:55:19.611Z,52.98
2023-03-20T13:58:21.444Z,52.95
2023-03-20T14:01:16.949Z,53.44
2023-03-20T14:03:46.953Z,55.45
2023-03-20T14:06:27.231Z,56.58
2023-03-20T14:08:57.658Z,55.12
2023-03-20T14:11:35.849Z,54.78
2023-03-20T14:14:13.851Z,55.11
2023-03-20T14:16:45.000Z,55.80
2023-03-20T14:19:21.955Z,56.72
2023-03-20T14:21:53.663Z,56.26
2023-03-20T14:24:24.379Z,57.97
2023-03-20T14:27:05.900Z,58.27
2023-03-20T14:29:39.174Z,60.35
2023-03-20T14:32:13.992Z,59.63
2023-03-20T14:35:19.037Z,60.00
2023-03-20T14:38:23.829Z,59.41
2023-03-20T14:40:58.204Z,60.02
2023-03-20T14:43:59.812Z,63.29
2023-03-20T14:46:39.565Z,63.59
2023-03-20T14:49:48.744Z,64.88
2023-03-20T14:52:59.495Z,65.16
2023-03-20T14:55:28.321Z,66.63
2023-03-20T14:57:57.310Z,66.02
2023-03-20T15:00:34.319Z,66.98
2023-03-20T15:03:12.026Z,67.27
2023-03-20T15:05:40.743Z,68.28
2023-03-20T15:08:19.527Z,68.38
2023-03-20T15:11:02.319Z,68.93
2023-03-20T15:13:31.406Z,68.90
2023-03-20T15:16:11.236Z,68.36
2023-03-20T15:18:47.339Z,68.74
2023-03-20T15:21:37.108Z,67.98
2023-03-20T15:24:06.790Z,67.69
2023-03-20T15:26:36.808Z,67.35
2023-03-20T15:29:08.514Z,68.02
2023-03-20T15:31:40.207Z,68.53
2023-03-20T15:34:16.076Z,68.36
2023-03-20T15:36:48.385Z,68.36
2023-03-20T15:39:25.071Z,67.75
2023-03-20T15:42:00.411Z,71.11
2023-03-20T15:44:36.904Z,69.35
2023-03-20T15:47:12.774Z,71.08
2023-03-20T15:49:41.943Z,74.40
2023-03-20T15:52:31.013Z,71.86
2023-03-20T15:55:03.909Z,72.36
2023-03-20T15:57:45.382Z,72.75
2023-03-20T16:00:17.113Z,75.12
2023-03-20T16:02:48.541Z,74.56
2023-03-20T16:05:18.747Z,75.81
2023-03-20T16:07:46.850Z,77.88
2023-03-20T16:10:20.042Z,76.59
2023-03-20T16:12:54.949Z,79.28
2023-03-20T16:15:27.789Z,76.69
2023-03-20T16:17:57.283Z,79.91
2023-03-20T16:20:28.976Z,84.26
2023-03-20T16:23:03.871Z,86.55
2023-03-20T16:25:31.672Z,87.45
2023-03-20T16:28:00.130Z,88.58
2023-03-20T16:30:31.998Z,88.83
2023-03-20T16:33:05.742Z,89.18
2023-03-20T16:35:40.434Z,89.79
2023-03-20T16:38:33.054Z,88.48
2023-03-20T16:41:29.540Z,86.24
2023-03-20T16:43:58.012Z,83.85
2023-03-20T16:46:27.583Z,83.74
2023-03-20T16:49:17.739Z,85.82
2023-03-20T16:51:45.249Z,88.51
2023-03-20T16:54:21.710Z,88.87
2023-03-20T16:56:54.421Z,85.51
2023-03-20T16:59:22.904Z,83.42
2023-03-20T17:01:53.125Z,82.92
2023-03-20T17:04:24.380Z,82.40
2023-03-20T17:06:59.059Z,82.47
2023-03-20T17:09:30.545Z,83.32
2023-03-20T17:12:05.340Z,82.57
2023-03-20T17:14:33.282Z,82.56
2023-03-20T17:17:00.524Z,82.65
2023-03-20T17:19:27.664Z,83.46
2023-03-20T17:21:55.046Z,83.19
2023-03-20T17:24:22.370Z,83.23
2023-03-20T17:26:55.473Z,83.73
2023-03-20T17:29:22.830Z,83.38
2023-03-20T17:31:50.416Z,84.21
2023-03-20T17:34:17.653Z,84.13
2023-03-20T17:36:44.826Z,83.70
2023-03-20T17:39:21.113Z,83.81
2023-03-20T17:41:48.750Z,84.11
2023-03-20T17:44:15.839Z,84.00
2023-03-20T17:46:56.731Z,83.99
2023-03-20T17:49:27.749Z,83.54
2023-03-20T17:51:57.076Z,84.39
2023-03-20T17:54:24.417Z,84.48
2023-03-20T17:56:51.679Z,85.08
2023-03-20T17:59:18.921Z,85.64
2023-03-20T18:01:46.461Z,85.65
2023-03-20T18:04:14.083Z,86.48
2023-03-20T18:06:41.604Z,86.03
2023-03-20T18:09:13.704Z,86.03
2023-03-20T18:11:41.286Z,86.13
2023-03-20T18:14:08.527Z,86.44
2023-03-20T18:16:35.804Z,86.41
2023-03-20T18:19:03.873Z,86.94
2023-03-20T18:21:31.224Z,86.32
2023-03-20T18:23:58.289Z,88.53
2023-03-20T18:26:27.605Z,87.41
2023-03-20T18:28:57.451Z,88.33
2023-03-20T18:31:24.873Z,89.17
2023-03-20T18:33:53.316Z,89.10
2023-03-20T18:36:23.143Z,89.13
2023-03-20T18:38:51.830Z,90.46
2023-03-20T18:41:19.519Z,90.27
2023-03-20T18:43:49.149Z,90.33
2023-03-20T18:46:19.326Z,90.44
2023-03-20T18:48:47.850Z,90.79
2023-03-20T18:51:15.511Z,90.53
2023-03-20T18:53:43.092Z,91.31
2023-03-20T18:56:14.770Z,90.36
2023-03-20T18:58:42.572Z,89.40
2023-03-20T19:01:12.988Z,89.77
2023-03-20T19:03:42.883Z,91.12
2023-03-20T19:06:16.822Z,90.15
2023-03-20T19:08:45.325Z,90.89
2023-03-20T19:11:17.835Z,91.60
2023-03-20T19:13:49.743Z,91.74
2023-03-20T19:16:28.616Z,91.52
2023-03-20T19:18:59.098Z,91.22
2023-03-20T19:21:26.766Z,90.84
2023-03-20T19:23:55.570Z,90.58
2023-03-20T19:26:24.903Z,91.10
2023-03-20T19:28:54.024Z,91.45
2023-03-20T19:31:21.836Z,91.61
2023-03-20T19:33:49.300Z,91.38
2023-03-20T19:36:31.708Z,92.10
2023-03-20T19:39:01.689Z,91.82
2023-03-20T19:41:29.440Z,92.03
2023-03-20T19:43:57.115Z,92.45
2023-03-20T19:46:42.533Z,92.74
2023-03-20T19:49:30.168Z,93.28
2023-03-20T19:51:58.284Z,92.77
2023-03-20T19:54:25.526Z,92.21
2023-03-20T19:56:52.774Z,93.19
2023-03-20T19:59:21.108Z,94.01
2023-03-20T20:01:48.493Z,94.22
2023-03-20T20:04:16.459Z,94.13
2023-03-20T20:06:46.651Z,94.10
2023-03-20T20:09:14.646Z,93.53
2023-03-20T20:11:41.715Z,94.17
2023-03-20T20:14:10.339Z,94.48
2023-03-20T20:16:42.773Z,93.91
2023-03-20T20:19:10.445Z,93.88
2023-03-20T20:24:25.544Z,93.39
2023-03-20T20:27:14.574Z,93.43
2023-03-20T20:29:43.332Z,93.07
2023-03-20T20:32:11.058Z,93.33
2023-03-20T20:35:30.770Z,93.10
2023-03-20T20:40:17.278Z,94.47
2023-03-20T20:42:47.528Z,93.89
2023-03-20T20:45:15.712Z,93.03
2023-03-20T20:47:47.230Z,93.65
2023-03-20T20:50:16.798Z,93.85
2023-03-20T20:52:44.553Z,93.78
2023-03-20T20:55:22.498Z,96.56
2023-03-20T20:57:53.188Z,99.84
2023-03-20T21:00:27.447Z,100.00
2023-03-20T21:02:58.704Z,100.00
2023-03-20T21:05:27.176Z,100.00
2023-03-20T21:07:54.591Z,98.14
2023-03-20T21:10:22.365Z,96.86
2023-03-20T21:12:59.170Z,96.08
2023-03-20T21:15:29.979Z,95.01
2023-03-20T21:18:01.504Z,94.45
2023-03-20T21:20:30.835Z,94.64
2023-03-20T21:22:58.835Z,94.29
2023-03-20T21:25:39.070Z,96.16
2023-03-20T21:28:07.444Z,98.91
2023-03-20T21:30:34.657Z,99.10
2023-03-20T21:33:03.341Z,97.62
2023-03-20T21:35:30.697Z,97.17
2023-03-20T21:38:47.541Z,97.78
2023-03-20T21:40:45.607Z,98.57
2023-03-20T21:43:14.445Z,98.29
2023-03-20T21:49:22.879Z,98.14
2023-03-20T21:52:28.931Z,98.14
2023-03-20T22:00:14.990Z,96.64
2023-03-20T22:02:29.046Z,96.70
2023-03-20T22:05:41.787Z,97.51
2023-03-20T22:08:57.854Z,97.67
2023-03-20T22:19:56.229Z,96.33
2023-03-20T22:22:56.333Z,95.91
2023-03-20T22:31:10.625Z,96.28
2023-03-20T22:36:37.833Z,96.31
2023-03-20T22:39:16.044Z,96.35
2023-03-20T22:42:12.393Z,96.41
2023-03-20T22:46:59.468Z,96.12
2023-03-20T22:49:26.730Z,95.80
2023-03-20T22:52:14.802Z,96.10
2023-03-20T22:54:41.924Z,96.11
2023-03-20T22:57:09.430Z,96.23
2023-03-20T22:59:36.786Z,96.22
2023-03-20T23:02:04.161Z,95.64
2023-03-20T23:04:31.153Z,95.46
2023-03-20T23:06:58.416Z,95.35
2023-03-20T23:09:25.432Z,96.10
2023-03-20T23:11:52.606Z,96.05
2023-03-20T23:14:22.004Z,96.22
2023-03-20T23:16:50.420Z,96.15
2023-03-20T23:19:17.713Z,95.58
2023-03-20T23:21:45.018Z,94.86
2023-03-20T23:24:12.194Z,94.35
2023-03-20T23:26:39.315Z,94.93
2023-03-20T23:29:06.790Z,95.29
2023-03-20T23:31:36.990Z,95.67
2023-03-20T23:34:04.059Z,95.42
2023-03-20T23:36:38.246Z,94.64
2023-03-20T23:39:07.895Z,95.61
2023-03-20T23:42:04.675Z,97.13
2023-03-20T23:44:23.504Z,99.73
2023-03-20T23:46:50.786Z,99.83
2023-03-20T23:49:17.903Z,98.63
2023-03-20T23:51:44.943Z,97.65
2023-03-20T23:54:12.581Z,97.56
2023-03-20T23:56:40.420Z,99.61
2023-03-20T23:59:20.493Z,100.00
